sensor_id;sensor_type;location;lat;lon;timestamp;P1;durP1;ratioP1;P2;durP2;ratioP2
7493;SDS011;3788;49.902;8.590;2022-09-09T00:01:54;2.77;;;1.23;;
7493;SDS011;3788;49.902;8.590;2022-09-09T00:04:27;1.97;;;1.30;;
7493;SDS011;3788;49.902;8.590;2022-09-09T00:07:04;2.40;;;1.17;;
7493;SDS011;3788;49.902;8.590;2022-09-09T00:09:39;2.57;;;1.37;;
7493;SDS011;3788;49.902;8.590;2022-09-09T00:12:14;1.17;;;0.97;;
7493;SDS011;3788;49.902;8.590;2022-09-09T00:14:47;1.93;;;1.10;;
7493;SDS011;3788;49.902;8.590;2022-09-09T00:17:19;2.63;;;1.00;;
7493;SDS011;3788;49.902;8.590;2022-09-09T00:19:59;1.57;;;0.90;;
7493;SDS011;3788;49.902;8.590;2022-09-09T00:22:30;1.70;;;1.00;;
7493;SDS011;3788;49.902;8.590;2022-09-09T00:25:01;2.33;;;1.60;;
7493;SDS011;3788;49.902;8.590;2022-09-09T00:27:36;1.73;;;1.30;;
7493;SDS011;3788;49.902;8.590;2022-09-09T00:30:13;2.20;;;1.17;;
7493;SDS011;3788;49.902;8.590;2022-09-09T00:32:43;2.07;;;1.37;;
7493;SDS011;3788;49.902;8.590;2022-09-09T00:35:14;0.80;;;0.80;;
7493;SDS011;3788;49.902;8.590;2022-09-09T00:37:46;2.53;;;1.10;;
7493;SDS011;3788;49.902;8.590;2022-09-09T00:40:18;1.73;;;1.37;;
7493;SDS011;3788;49.902;8.590;2022-09-09T00:42:54;1.57;;;0.93;;
7493;SDS011;3788;49.902;8.590;2022-09-09T00:45:42;3.03;;;1.00;;
7493;SDS011;3788;49.902;8.590;2022-09-09T00:48:26;0.93;;;0.90;;
7493;SDS011;3788;49.902;8.590;2022-09-09T00:51:02;2.53;;;1.03;;
7493;SDS011;3788;49.902;8.590;2022-09-09T00:53:39;2.30;;;1.00;;
7493;SDS011;3788;49.902;8.590;2022-09-09T00:56:19;1.70;;;1.10;;
7493;SDS011;3788;49.902;8.590;2022-09-09T00:58:49;1.50;;;0.90;;
7493;SDS011;3788;49.902;8.590;2022-09-09T01:01:25;1.80;;;1.07;;
7493;SDS011;3788;49.902;8.590;2022-09-09T01:03:53;1.67;;;1.17;;
7493;SDS011;3788;49.902;8.590;2022-09-09T01:06:21;1.30;;;1.20;;
7493;SDS011;3788;49.902;8.590;2022-09-09T01:08:59;4.00;;;1.37;;
7493;SDS011;3788;49.902;8.590;2022-09-09T01:11:33;1.47;;;1.00;;
7493;SDS011;3788;49.902;8.590;2022-09-09T01:14:11;2.17;;;1.17;;
7493;SDS011;3788;49.902;8.590;2022-09-09T01:16:48;1.53;;;1.10;;
7493;SDS011;3788;49.902;8.590;2022-09-09T01:19:18;1.77;;;1.50;;
7493;SDS011;3788;49.902;8.590;2022-09-09T01:21:54;1.50;;;1.20;;
7493;SDS011;3788;49.902;8.590;2022-09-09T01:24:28;1.53;;;1.30;;
7493;SDS011;3788;49.902;8.590;2022-09-09T01:27:03;2.83;;;1.43;;
7493;SDS011;3788;49.902;8.590;2022-09-09T01:29:32;2.60;;;1.40;;
7493;SDS011;3788;49.902;8.590;2022-09-09T01:35:24;2.20;;;1.07;;
7493;SDS011;3788;49.902;8.590;2022-09-09T01:38:01;2.67;;;1.20;;
7493;SDS011;3788;49.902;8.590;2022-09-09T01:40:28;2.80;;;1.27;;
7493;SDS011;3788;49.902;8.590;2022-09-09T01:42:56;3.17;;;1.30;;
7493;SDS011;3788;49.902;8.590;2022-09-09T01:45:23;2.77;;;1.20;;
7493;SDS011;3788;49.902;8.590;2022-09-09T01:47:50;1.37;;;1.10;;
7493;SDS011;3788;49.902;8.590;2022-09-09T01:50:19;1.83;;;1.37;;
7493;SDS011;3788;49.902;8.590;2022-09-09T01:52:47;2.20;;;1.27;;
7493;SDS011;3788;49.902;8.590;2022-09-09T01:55:16;2.80;;;1.37;;
7493;SDS011;3788;49.902;8.590;2022-09-09T01:57:52;2.00;;;1.13;;
7493;SDS011;3788;49.902;8.590;2022-09-09T02:00:31;2.90;;;1.30;;
7493;SDS011;3788;49.902;8.590;2022-09-09T02:03:04;2.27;;;1.40;;
7493;SDS011;3788;49.902;8.590;2022-09-09T02:05:36;1.97;;;1.13;;
7493;SDS011;3788;49.902;8.590;2022-09-09T02:08:06;2.17;;;1.30;;
7493;SDS011;3788;49.902;8.590;2022-09-09T02:10:36;1.57;;;1.20;;
7493;SDS011;3788;49.902;8.590;2022-09-09T02:13:10;2.10;;;1.30;;
7493;SDS011;3788;49.902;8.590;2022-09-09T02:15:40;1.70;;;1.37;;
7493;SDS011;3788;49.902;8.590;2022-09-09T02:18:11;3.90;;;1.30;;
7493;SDS011;3788;49.902;8.590;2022-09-09T02:20:41;3.47;;;1.47;;
7493;SDS011;3788;49.902;8.590;2022-09-09T02:23:10;1.40;;;1.30;;
7493;SDS011;3788;49.902;8.590;2022-09-09T02:25:38;1.20;;;1.10;;
7493;SDS011;3788;49.902;8.590;2022-09-09T02:28:07;1.57;;;1.23;;
7493;SDS011;3788;49.902;8.590;2022-09-09T02:30:37;2.20;;;1.40;;
7493;SDS011;3788;49.902;8.590;2022-09-09T02:33:06;2.50;;;1.23;;
7493;SDS011;3788;49.902;8.590;2022-09-09T02:35:35;2.90;;;1.20;;
7493;SDS011;3788;49.902;8.590;2022-09-09T02:38:04;2.57;;;1.20;;
7493;SDS011;3788;49.902;8.590;2022-09-09T02:40:33;2.77;;;1.27;;
7493;SDS011;3788;49.902;8.590;2022-09-09T02:43:00;2.20;;;1.47;;
7493;SDS011;3788;49.902;8.590;2022-09-09T02:45:30;3.53;;;1.40;;
7493;SDS011;3788;49.902;8.590;2022-09-09T02:48:03;4.63;;;1.10;;
7493;SDS011;3788;49.902;8.590;2022-09-09T02:50:39;2.70;;;1.20;;
7493;SDS011;3788;49.902;8.590;2022-09-09T02:53:16;3.57;;;1.60;;
7493;SDS011;3788;49.902;8.590;2022-09-09T02:55:46;3.17;;;1.50;;
7493;SDS011;3788;49.902;8.590;2022-09-09T02:58:15;2.27;;;1.33;;
7493;SDS011;3788;49.902;8.590;2022-09-09T03:00:45;2.27;;;1.23;;
7493;SDS011;3788;49.902;8.590;2022-09-09T03:03:13;2.10;;;1.30;;
7493;SDS011;3788;49.902;8.590;2022-09-09T03:05:41;2.10;;;1.23;;
7493;SDS011;3788;49.902;8.590;2022-09-09T03:08:08;2.13;;;1.20;;
7493;SDS011;3788;49.902;8.590;2022-09-09T03:10:35;1.70;;;1.17;;
7493;SDS011;3788;49.902;8.590;2022-09-09T03:13:02;1.67;;;1.20;;
7493;SDS011;3788;49.902;8.590;2022-09-09T03:15:30;1.77;;;1.20;;
7493;SDS011;3788;49.902;8.590;2022-09-09T03:17:58;1.73;;;1.20;;
7493;SDS011;3788;49.902;8.590;2022-09-09T03:20:26;1.47;;;1.17;;
7493;SDS011;3788;49.902;8.590;2022-09-09T03:22:54;3.00;;;1.30;;
7493;SDS011;3788;49.902;8.590;2022-09-09T03:25:21;2.00;;;1.30;;
7493;SDS011;3788;49.902;8.590;2022-09-09T03:27:49;2.93;;;1.20;;
7493;SDS011;3788;49.902;8.590;2022-09-09T03:30:20;1.97;;;1.20;;
7493;SDS011;3788;49.902;8.590;2022-09-09T03:32:47;2.10;;;1.37;;
7493;SDS011;3788;49.902;8.590;2022-09-09T03:35:15;1.77;;;1.00;;
7493;SDS011;3788;49.902;8.590;2022-09-09T03:37:42;2.87;;;1.60;;
7493;SDS011;3788;49.902;8.590;2022-09-09T03:40:09;2.67;;;1.47;;
7493;SDS011;3788;49.902;8.590;2022-09-09T03:42:36;1.50;;;1.10;;
7493;SDS011;3788;49.902;8.590;2022-09-09T03:45:04;2.83;;;1.67;;
7493;SDS011;3788;49.902;8.590;2022-09-09T03:47:32;1.70;;;1.20;;
7493;SDS011;3788;49.902;8.590;2022-09-09T03:49:59;2.07;;;1.30;;
7493;SDS011;3788;49.902;8.590;2022-09-09T03:52:27;3.57;;;1.17;;
7493;SDS011;3788;49.902;8.590;2022-09-09T03:54:54;2.60;;;1.40;;
7493;SDS011;3788;49.902;8.590;2022-09-09T03:57:21;1.47;;;1.03;;
7493;SDS011;3788;49.902;8.590;2022-09-09T03:59:48;1.20;;;1.10;;
7493;SDS011;3788;49.902;8.590;2022-09-09T04:02:14;1.17;;;1.10;;
7493;SDS011;3788;49.902;8.590;2022-09-09T04:04:41;1.97;;;1.30;;
7493;SDS011;3788;49.902;8.590;2022-09-09T04:07:08;2.60;;;1.63;;
7493;SDS011;3788;49.902;8.590;2022-09-09T04:09:36;1.37;;;1.10;;
7493;SDS011;3788;49.902;8.590;2022-09-09T04:12:02;2.13;;;1.37;;
7493;SDS011;3788;49.902;8.590;2022-09-09T04:14:29;1.63;;;1.37;;
7493;SDS011;3788;49.902;8.590;2022-09-09T04:16:56;1.40;;;1.30;;
7493;SDS011;3788;49.902;8.590;2022-09-09T04:19:24;2.47;;;1.30;;
7493;SDS011;3788;49.902;8.590;2022-09-09T04:21:51;2.20;;;1.20;;
7493;SDS011;3788;49.902;8.590;2022-09-09T04:24:17;1.57;;;1.13;;
7493;SDS011;3788;49.902;8.590;2022-09-09T04:26:46;1.40;;;1.30;;
7493;SDS011;3788;49.902;8.590;2022-09-09T04:29:13;1.60;;;1.30;;
7493;SDS011;3788;49.902;8.590;2022-09-09T04:31:39;1.93;;;1.50;;
7493;SDS011;3788;49.902;8.590;2022-09-09T04:34:07;1.80;;;1.10;;
7493;SDS011;3788;49.902;8.590;2022-09-09T04:36:33;1.73;;;1.10;;
7493;SDS011;3788;49.902;8.590;2022-09-09T04:39:00;2.53;;;1.40;;
7493;SDS011;3788;49.902;8.590;2022-09-09T04:41:27;3.93;;;1.40;;
7493;SDS011;3788;49.902;8.590;2022-09-09T04:43:56;2.33;;;1.40;;
7493;SDS011;3788;49.902;8.590;2022-09-09T04:46:23;2.43;;;1.20;;
7493;SDS011;3788;49.902;8.590;2022-09-09T04:48:50;2.00;;;1.53;;
7493;SDS011;3788;49.902;8.590;2022-09-09T04:51:17;4.00;;;1.30;;
7493;SDS011;3788;49.902;8.590;2022-09-09T04:53:44;3.80;;;1.17;;
7493;SDS011;3788;49.902;8.590;2022-09-09T04:56:12;1.20;;;1.10;;
7493;SDS011;3788;49.902;8.590;2022-09-09T04:58:40;2.03;;;1.67;;
7493;SDS011;3788;49.902;8.590;2022-09-09T05:01:09;2.97;;;1.20;;
7493;SDS011;3788;49.902;8.590;2022-09-09T05:03:37;2.90;;;1.57;;
7493;SDS011;3788;49.902;8.590;2022-09-09T05:06:05;3.03;;;1.30;;
7493;SDS011;3788;49.902;8.590;2022-09-09T05:08:33;2.70;;;1.30;;
7493;SDS011;3788;49.902;8.590;2022-09-09T05:11:00;1.33;;;1.17;;
7493;SDS011;3788;49.902;8.590;2022-09-09T05:13:27;3.57;;;1.47;;
7493;SDS011;3788;49.902;8.590;2022-09-09T05:15:56;1.30;;;1.20;;
7493;SDS011;3788;49.902;8.590;2022-09-09T05:18:24;2.90;;;1.27;;
7493;SDS011;3788;49.902;8.590;2022-09-09T05:20:50;3.13;;;1.30;;
7493;SDS011;3788;49.902;8.590;2022-09-09T05:23:17;3.53;;;1.27;;
7493;SDS011;3788;49.902;8.590;2022-09-09T05:25:54;2.50;;;1.33;;
7493;SDS011;3788;49.902;8.590;2022-09-09T05:28:22;1.93;;;1.40;;
7493;SDS011;3788;49.902;8.590;2022-09-09T05:30:54;2.13;;;1.40;;
7493;SDS011;3788;49.902;8.590;2022-09-09T05:33:27;2.50;;;1.30;;
7493;SDS011;3788;49.902;8.590;2022-09-09T05:35:55;2.10;;;1.17;;
7493;SDS011;3788;49.902;8.590;2022-09-09T05:38:26;3.43;;;1.50;;
7493;SDS011;3788;49.902;8.590;2022-09-09T05:40:54;3.17;;;1.20;;
7493;SDS011;3788;49.902;8.590;2022-09-09T05:43:21;1.93;;;1.60;;
7493;SDS011;3788;49.902;8.590;2022-09-09T05:45:48;2.13;;;1.10;;
7493;SDS011;3788;49.902;8.590;2022-09-09T05:48:28;4.30;;;1.47;;
7493;SDS011;3788;49.902;8.590;2022-09-09T05:50:56;2.27;;;1.30;;
7493;SDS011;3788;49.902;8.590;2022-09-09T05:53:23;1.40;;;1.23;;
7493;SDS011;3788;49.902;8.590;2022-09-09T05:55:50;2.60;;;1.43;;
7493;SDS011;3788;49.902;8.590;2022-09-09T05:58:23;3.73;;;1.03;;
7493;SDS011;3788;49.902;8.590;2022-09-09T06:00:50;2.83;;;1.30;;
7493;SDS011;3788;49.902;8.590;2022-09-09T06:03:16;3.63;;;1.43;;
7493;SDS011;3788;49.902;8.590;2022-09-09T06:05:44;2.03;;;1.30;;
7493;SDS011;3788;49.902;8.590;2022-09-09T06:08:11;2.63;;;1.27;;
7493;SDS011;3788;49.902;8.590;2022-09-09T06:10:38;1.60;;;1.00;;
7493;SDS011;3788;49.902;8.590;2022-09-09T06:13:05;3.83;;;1.30;;
7493;SDS011;3788;49.902;8.590;2022-09-09T06:15:31;1.70;;;1.00;;
7493;SDS011;3788;49.902;8.590;2022-09-09T06:17:59;3.47;;;1.37;;
7493;SDS011;3788;49.902;8.590;2022-09-09T06:20:25;1.83;;;1.10;;
7493;SDS011;3788;49.902;8.590;2022-09-09T06:22:56;3.70;;;1.20;;
7493;SDS011;3788;49.902;8.590;2022-09-09T06:25:24;1.17;;;1.00;;
7493;SDS011;3788;49.902;8.590;2022-09-09T06:27:51;2.90;;;1.40;;
7493;SDS011;3788;49.902;8.590;2022-09-09T06:30:18;3.40;;;1.03;;
7493;SDS011;3788;49.902;8.590;2022-09-09T06:32:45;1.27;;;0.97;;
7493;SDS011;3788;49.902;8.590;2022-09-09T06:35:12;2.10;;;1.23;;
7493;SDS011;3788;49.902;8.590;2022-09-09T06:37:38;2.23;;;1.03;;
7493;SDS011;3788;49.902;8.590;2022-09-09T06:40:07;1.90;;;0.90;;
7493;SDS011;3788;49.902;8.590;2022-09-09T06:42:35;3.47;;;1.00;;
7493;SDS011;3788;49.902;8.590;2022-09-09T06:45:02;1.13;;;0.80;;
7493;SDS011;3788;49.902;8.590;2022-09-09T06:47:29;2.50;;;1.00;;
7493;SDS011;3788;49.902;8.590;2022-09-09T06:49:56;1.40;;;0.90;;
7493;SDS011;3788;49.902;8.590;2022-09-09T06:52:23;1.37;;;0.97;;
7493;SDS011;3788;49.902;8.590;2022-09-09T06:54:50;1.40;;;0.90;;
7493;SDS011;3788;49.902;8.590;2022-09-09T06:57:19;3.53;;;1.20;;
7493;SDS011;3788;49.902;8.590;2022-09-09T06:59:46;3.13;;;1.37;;
7493;SDS011;3788;49.902;8.590;2022-09-09T07:02:13;1.50;;;0.80;;
7493;SDS011;3788;49.902;8.590;2022-09-09T07:04:40;3.00;;;1.30;;
7493;SDS011;3788;49.902;8.590;2022-09-09T07:07:06;3.93;;;0.90;;
7493;SDS011;3788;49.902;8.590;2022-09-09T07:09:34;2.20;;;1.20;;
7493;SDS011;3788;49.902;8.590;2022-09-09T07:12:01;1.83;;;1.30;;
7493;SDS011;3788;49.902;8.590;2022-09-09T07:14:32;2.80;;;1.30;;
7493;SDS011;3788;49.902;8.590;2022-09-09T07:16:59;1.30;;;1.07;;
7493;SDS011;3788;49.902;8.590;2022-09-09T07:19:26;2.57;;;1.37;;
7493;SDS011;3788;49.902;8.590;2022-09-09T07:21:52;3.37;;;1.30;;
7493;SDS011;3788;49.902;8.590;2022-09-09T07:24:19;1.93;;;1.30;;
7493;SDS011;3788;49.902;8.590;2022-09-09T07:26:46;2.20;;;1.13;;
7493;SDS011;3788;49.902;8.590;2022-09-09T07:29:13;1.70;;;1.03;;
7493;SDS011;3788;49.902;8.590;2022-09-09T07:31:41;3.57;;;1.23;;
7493;SDS011;3788;49.902;8.590;2022-09-09T07:34:08;2.17;;;1.30;;
7493;SDS011;3788;49.902;8.590;2022-09-09T07:36:35;2.17;;;1.10;;
7493;SDS011;3788;49.902;8.590;2022-09-09T07:39:04;2.13;;;1.20;;
7493;SDS011;3788;49.902;8.590;2022-09-09T07:41:33;2.40;;;1.10;;
7493;SDS011;3788;49.902;8.590;2022-09-09T07:44:04;1.87;;;1.10;;
7493;SDS011;3788;49.902;8.590;2022-09-09T07:46:31;3.00;;;1.20;;
7493;SDS011;3788;49.902;8.590;2022-09-09T07:49:00;4.37;;;1.23;;
7493;SDS011;3788;49.902;8.590;2022-09-09T07:51:28;3.87;;;1.17;;
7493;SDS011;3788;49.902;8.590;2022-09-09T07:53:57;3.03;;;1.20;;
7493;SDS011;3788;49.902;8.590;2022-09-09T07:56:25;2.13;;;1.23;;
7493;SDS011;3788;49.902;8.590;2022-09-09T07:58:53;2.03;;;1.20;;
7493;SDS011;3788;49.902;8.590;2022-09-09T08:01:22;3.67;;;1.00;;
7493;SDS011;3788;49.902;8.590;2022-09-09T08:03:52;2.33;;;1.10;;
7493;SDS011;3788;49.902;8.590;2022-09-09T08:06:22;3.37;;;1.10;;
7493;SDS011;3788;49.902;8.590;2022-09-09T08:08:50;3.77;;;1.20;;
7493;SDS011;3788;49.902;8.590;2022-09-09T08:11:17;3.10;;;1.53;;
7493;SDS011;3788;49.902;8.590;2022-09-09T08:13:44;2.07;;;1.10;;
7493;SDS011;3788;49.902;8.590;2022-09-09T08:16:13;2.70;;;1.03;;
7493;SDS011;3788;49.902;8.590;2022-09-09T08:18:41;3.17;;;1.10;;
7493;SDS011;3788;49.902;8.590;2022-09-09T08:21:09;2.60;;;1.23;;
7493;SDS011;3788;49.902;8.590;2022-09-09T08:23:39;4.20;;;1.43;;
7493;SDS011;3788;49.902;8.590;2022-09-09T08:26:07;2.40;;;1.13;;
7493;SDS011;3788;49.902;8.590;2022-09-09T08:28:38;4.20;;;1.20;;
7493;SDS011;3788;49.902;8.590;2022-09-09T08:31:10;3.07;;;1.07;;
7493;SDS011;3788;49.902;8.590;2022-09-09T08:33:38;2.83;;;1.20;;
7493;SDS011;3788;49.902;8.590;2022-09-09T08:36:06;4.87;;;1.20;;
7493;SDS011;3788;49.902;8.590;2022-09-09T08:38:35;4.90;;;1.20;;
7493;SDS011;3788;49.902;8.590;2022-09-09T08:41:18;3.03;;;1.30;;
7493;SDS011;3788;49.902;8.590;2022-09-09T08:44:07;2.33;;;1.00;;
7493;SDS011;3788;49.902;8.590;2022-09-09T08:46:38;4.83;;;1.00;;
7493;SDS011;3788;49.902;8.590;2022-09-09T08:49:16;2.80;;;1.63;;
7493;SDS011;3788;49.902;8.590;2022-09-09T08:51:53;2.53;;;1.00;;
7493;SDS011;3788;49.902;8.590;2022-09-09T08:54:21;1.27;;;0.90;;
7493;SDS011;3788;49.902;8.590;2022-09-09T08:56:49;2.43;;;1.23;;
7493;SDS011;3788;49.902;8.590;2022-09-09T08:59:17;3.23;;;1.20;;
7493;SDS011;3788;49.902;8.590;2022-09-09T09:01:49;4.53;;;1.33;;
7493;SDS011;3788;49.902;8.590;2022-09-09T09:04:28;3.23;;;1.50;;
7493;SDS011;3788;49.902;8.590;2022-09-09T09:07:08;2.20;;;1.20;;
7493;SDS011;3788;49.902;8.590;2022-09-09T09:09:46;2.93;;;1.10;;
7493;SDS011;3788;49.902;8.590;2022-09-09T09:12:25;3.20;;;1.37;;
7493;SDS011;3788;49.902;8.590;2022-09-09T09:14:55;4.10;;;1.23;;
7493;SDS011;3788;49.902;8.590;2022-09-09T09:17:24;2.83;;;1.10;;
7493;SDS011;3788;49.902;8.590;2022-09-09T09:19:52;3.80;;;1.50;;
7493;SDS011;3788;49.902;8.590;2022-09-09T09:22:20;4.33;;;1.20;;
7493;SDS011;3788;49.902;8.590;2022-09-09T09:24:51;5.03;;;1.40;;
7493;SDS011;3788;49.902;8.590;2022-09-09T09:27:21;2.63;;;1.33;;
7493;SDS011;3788;49.902;8.590;2022-09-09T09:29:59;3.13;;;1.20;;
7493;SDS011;3788;49.902;8.590;2022-09-09T09:32:28;2.43;;;1.27;;
7493;SDS011;3788;49.902;8.590;2022-09-09T09:34:59;3.23;;;1.00;;
7493;SDS011;3788;49.902;8.590;2022-09-09T09:37:33;2.37;;;1.57;;
7493;SDS011;3788;49.902;8.590;2022-09-09T09:40:08;3.20;;;1.40;;
7493;SDS011;3788;49.902;8.590;2022-09-09T09:42:37;3.87;;;1.10;;
7493;SDS011;3788;49.902;8.590;2022-09-09T09:45:07;3.97;;;1.03;;
7493;SDS011;3788;49.902;8.590;2022-09-09T09:47:41;3.30;;;1.03;;
7493;SDS011;3788;49.902;8.590;2022-09-09T09:50:16;2.80;;;1.20;;
7493;SDS011;3788;49.902;8.590;2022-09-09T09:52:51;2.37;;;1.50;;
7493;SDS011;3788;49.902;8.590;2022-09-09T09:55:21;1.03;;;0.90;;
7493;SDS011;3788;49.902;8.590;2022-09-09T09:57:50;2.77;;;1.37;;
7493;SDS011;3788;49.902;8.590;2022-09-09T10:00:19;2.20;;;1.07;;
7493;SDS011;3788;49.902;8.590;2022-09-09T10:02:47;4.30;;;1.00;;
7493;SDS011;3788;49.902;8.590;2022-09-09T10:05:17;3.27;;;1.20;;
7493;SDS011;3788;49.902;8.590;2022-09-09T10:07:46;2.90;;;1.03;;
7493;SDS011;3788;49.902;8.590;2022-09-09T10:10:15;1.87;;;0.97;;
7493;SDS011;3788;49.902;8.590;2022-09-09T10:12:55;1.50;;;0.70;;
7493;SDS011;3788;49.902;8.590;2022-09-09T10:15:32;6.10;;;1.07;;
7493;SDS011;3788;49.902;8.590;2022-09-09T10:18:12;3.73;;;1.13;;
7493;SDS011;3788;49.902;8.590;2022-09-09T10:20:52;2.37;;;0.90;;
7493;SDS011;3788;49.902;8.590;2022-09-09T10:23:29;2.30;;;0.93;;
7493;SDS011;3788;49.902;8.590;2022-09-09T10:26:12;2.30;;;0.83;;
7493;SDS011;3788;49.902;8.590;2022-09-09T10:28:54;3.00;;;0.87;;
7493;SDS011;3788;49.902;8.590;2022-09-09T10:31:33;4.13;;;0.90;;
7493;SDS011;3788;49.902;8.590;2022-09-09T10:34:11;3.33;;;1.20;;
7493;SDS011;3788;49.902;8.590;2022-09-09T10:36:46;3.10;;;1.43;;
7493;SDS011;3788;49.902;8.590;2022-09-09T10:39:16;2.90;;;1.10;;
7493;SDS011;3788;49.902;8.590;2022-09-09T10:41:56;5.07;;;1.10;;
7493;SDS011;3788;49.902;8.590;2022-09-09T10:44:34;2.97;;;1.10;;
7493;SDS011;3788;49.902;8.590;2022-09-09T10:47:17;3.50;;;0.80;;
7493;SDS011;3788;49.902;8.590;2022-09-09T10:50:03;5.20;;;1.10;;
7493;SDS011;3788;49.902;8.590;2022-09-09T10:52:56;3.30;;;1.00;;
7493;SDS011;3788;49.902;8.590;2022-09-09T10:55:32;3.00;;;1.00;;
7493;SDS011;3788;49.902;8.590;2022-09-09T10:58:05;2.60;;;0.80;;
7493;SDS011;3788;49.902;8.590;2022-09-09T11:00:40;2.90;;;0.90;;
7493;SDS011;3788;49.902;8.590;2022-09-09T11:03:13;3.77;;;1.00;;
7493;SDS011;3788;49.902;8.590;2022-09-09T11:05:44;2.23;;;1.00;;
7493;SDS011;3788;49.902;8.590;2022-09-09T11:08:15;4.60;;;1.20;;
7493;SDS011;3788;49.902;8.590;2022-09-09T11:10:45;4.37;;;1.10;;
7493;SDS011;3788;49.902;8.590;2022-09-09T11:13:22;2.50;;;0.80;;
7493;SDS011;3788;49.902;8.590;2022-09-09T11:15:54;3.00;;;0.80;;
7493;SDS011;3788;49.902;8.590;2022-09-09T11:18:26;2.87;;;1.07;;
7493;SDS011;3788;49.902;8.590;2022-09-09T11:20:58;3.57;;;1.17;;
7493;SDS011;3788;49.902;8.590;2022-09-09T11:23:29;3.30;;;1.03;;
7493;SDS011;3788;49.902;8.590;2022-09-09T11:26:03;3.97;;;1.37;;
7493;SDS011;3788;49.902;8.590;2022-09-09T11:28:37;1.70;;;0.80;;
7493;SDS011;3788;49.902;8.590;2022-09-09T11:31:19;3.90;;;0.90;;
7493;SDS011;3788;49.902;8.590;2022-09-09T11:34:06;1.97;;;0.77;;
7493;SDS011;3788;49.902;8.590;2022-09-09T11:36:58;2.73;;;0.90;;
7493;SDS011;3788;49.902;8.590;2022-09-09T11:39:46;3.23;;;1.20;;
7493;SDS011;3788;49.902;8.590;2022-09-09T11:42:23;3.33;;;1.10;;
7493;SDS011;3788;49.902;8.590;2022-09-09T11:44:51;2.43;;;1.13;;
7493;SDS011;3788;49.902;8.590;2022-09-09T11:47:22;4.00;;;1.00;;
7493;SDS011;3788;49.902;8.590;2022-09-09T11:49:55;2.63;;;0.90;;
7493;SDS011;3788;49.902;8.590;2022-09-09T11:52:36;3.00;;;1.00;;
7493;SDS011;3788;49.902;8.590;2022-09-09T11:55:10;2.40;;;0.73;;
7493;SDS011;3788;49.902;8.590;2022-09-09T11:57:56;2.77;;;0.83;;
7493;SDS011;3788;49.902;8.590;2022-09-09T12:00:29;1.73;;;0.83;;
7493;SDS011;3788;49.902;8.590;2022-09-09T12:03:02;2.43;;;0.70;;
7493;SDS011;3788;49.902;8.590;2022-09-09T12:05:36;2.53;;;0.90;;
7493;SDS011;3788;49.902;8.590;2022-09-09T12:08:05;1.73;;;0.90;;
7493;SDS011;3788;49.902;8.590;2022-09-09T12:10:35;1.77;;;0.93;;
7493;SDS011;3788;49.902;8.590;2022-09-09T12:13:09;1.87;;;1.23;;
7493;SDS011;3788;49.902;8.590;2022-09-09T12:18:14;3.77;;;1.20;;
7493;SDS011;3788;49.902;8.590;2022-09-09T12:20:50;2.30;;;1.23;;
7493;SDS011;3788;49.902;8.590;2022-09-09T12:23:30;4.13;;;0.93;;
7493;SDS011;3788;49.902;8.590;2022-09-09T12:26:10;2.43;;;1.33;;
7493;SDS011;3788;49.902;8.590;2022-09-09T12:28:55;2.77;;;1.27;;
7493;SDS011;3788;49.902;8.590;2022-09-09T12:31:59;3.03;;;0.90;;
7493;SDS011;3788;49.902;8.590;2022-09-09T12:34:33;3.87;;;1.37;;
7493;SDS011;3788;49.902;8.590;2022-09-09T12:37:06;2.00;;;1.00;;
7493;SDS011;3788;49.902;8.590;2022-09-09T12:39:51;5.03;;;1.30;;
7493;SDS011;3788;49.902;8.590;2022-09-09T12:45:19;1.93;;;1.33;;
7493;SDS011;3788;49.902;8.590;2022-09-09T12:48:39;2.17;;;0.70;;
7493;SDS011;3788;49.902;8.590;2022-09-09T13:02:50;0.40;;;0.40;;
7493;SDS011;3788;49.902;8.590;2022-09-09T13:05:23;0.40;;;0.40;;
7493;SDS011;3788;49.902;8.590;2022-09-09T13:08:11;0.63;;;0.40;;
7493;SDS011;3788;49.902;8.590;2022-09-09T13:10:52;0.90;;;0.50;;
7493;SDS011;3788;49.902;8.590;2022-09-09T13:13:22;0.63;;;0.50;;
7493;SDS011;3788;49.902;8.590;2022-09-09T13:15:55;0.60;;;0.50;;
7493;SDS011;3788;49.902;8.590;2022-09-09T13:18:26;0.50;;;0.50;;
7493;SDS011;3788;49.902;8.590;2022-09-09T13:20:55;1.17;;;0.60;;
7493;SDS011;3788;49.902;8.590;2022-09-09T13:23:24;0.50;;;0.50;;
7493;SDS011;3788;49.902;8.590;2022-09-09T13:25:54;1.20;;;0.50;;
7493;SDS011;3788;49.902;8.590;2022-09-09T13:28:23;0.43;;;0.43;;
7493;SDS011;3788;49.902;8.590;2022-09-09T13:30:58;0.57;;;0.50;;
7493;SDS011;3788;49.902;8.590;2022-09-09T13:33:31;0.67;;;0.50;;
7493;SDS011;3788;49.902;8.590;2022-09-09T13:35:59;0.70;;;0.70;;
7493;SDS011;3788;49.902;8.590;2022-09-09T13:38:29;0.30;;;0.30;;
7493;SDS011;3788;49.902;8.590;2022-09-09T13:41:00;1.23;;;0.60;;
7493;SDS011;3788;49.902;8.590;2022-09-09T13:43:28;1.13;;;0.80;;
7493;SDS011;3788;49.902;8.590;2022-09-09T13:45:58;0.40;;;0.40;;
7493;SDS011;3788;49.902;8.590;2022-09-09T13:48:26;0.57;;;0.57;;
7493;SDS011;3788;49.902;8.590;2022-09-09T13:51:03;1.93;;;0.50;;
7493;SDS011;3788;49.902;8.590;2022-09-09T13:53:30;1.90;;;0.50;;
7493;SDS011;3788;49.902;8.590;2022-09-09T13:55:58;2.17;;;0.60;;
7493;SDS011;3788;49.902;8.590;2022-09-09T13:58:26;0.77;;;0.60;;
7493;SDS011;3788;49.902;8.590;2022-09-09T14:00:53;0.93;;;0.50;;
7493;SDS011;3788;49.902;8.590;2022-09-09T14:03:20;0.50;;;0.40;;
7493;SDS011;3788;49.902;8.590;2022-09-09T14:05:47;0.97;;;0.40;;
7493;SDS011;3788;49.902;8.590;2022-09-09T14:08:19;1.27;;;0.50;;
7493;SDS011;3788;49.902;8.590;2022-09-09T14:10:50;0.67;;;0.50;;
7493;SDS011;3788;49.902;8.590;2022-09-09T14:13:17;0.80;;;0.60;;
7493;SDS011;3788;49.902;8.590;2022-09-09T14:15:46;0.73;;;0.40;;
7493;SDS011;3788;49.902;8.590;2022-09-09T14:18:14;0.43;;;0.40;;
7493;SDS011;3788;49.902;8.590;2022-09-09T14:20:41;0.97;;;0.53;;
7493;SDS011;3788;49.902;8.590;2022-09-09T14:23:09;1.23;;;0.60;;
7493;SDS011;3788;49.902;8.590;2022-09-09T14:25:40;0.50;;;0.50;;
7493;SDS011;3788;49.902;8.590;2022-09-09T14:28:08;2.53;;;0.63;;
7493;SDS011;3788;49.902;8.590;2022-09-09T14:30:37;2.30;;;0.60;;
7493;SDS011;3788;49.902;8.590;2022-09-09T14:33:04;1.43;;;0.70;;
7493;SDS011;3788;49.902;8.590;2022-09-09T14:35:31;1.40;;;0.50;;
7493;SDS011;3788;49.902;8.590;2022-09-09T14:37:59;0.57;;;0.50;;
7493;SDS011;3788;49.902;8.590;2022-09-09T14:40:26;1.40;;;0.90;;
7493;SDS011;3788;49.902;8.590;2022-09-09T14:42:54;2.37;;;0.93;;
7493;SDS011;3788;49.902;8.590;2022-09-09T14:45:21;2.73;;;0.60;;
7493;SDS011;3788;49.902;8.590;2022-09-09T14:47:49;1.37;;;0.90;;
7493;SDS011;3788;49.902;8.590;2022-09-09T14:50:16;1.03;;;0.70;;
7493;SDS011;3788;49.902;8.590;2022-09-09T14:52:43;1.77;;;0.77;;
7493;SDS011;3788;49.902;8.590;2022-09-09T14:55:09;1.47;;;1.13;;
7493;SDS011;3788;49.902;8.590;2022-09-09T14:57:37;2.47;;;1.00;;
7493;SDS011;3788;49.902;8.590;2022-09-09T15:00:07;0.77;;;0.70;;
7493;SDS011;3788;49.902;8.590;2022-09-09T15:02:35;2.30;;;0.80;;
7493;SDS011;3788;49.902;8.590;2022-09-09T15:05:01;1.33;;;0.70;;
7493;SDS011;3788;49.902;8.590;2022-09-09T15:07:29;1.77;;;0.90;;
7493;SDS011;3788;49.902;8.590;2022-09-09T15:09:56;3.83;;;0.90;;
7493;SDS011;3788;49.902;8.590;2022-09-09T15:12:23;1.60;;;0.70;;
7493;SDS011;3788;49.902;8.590;2022-09-09T15:14:50;0.80;;;0.73;;
7493;SDS011;3788;49.902;8.590;2022-09-09T15:17:19;1.20;;;0.90;;
7493;SDS011;3788;49.902;8.590;2022-09-09T15:19:46;1.57;;;0.90;;
7493;SDS011;3788;49.902;8.590;2022-09-09T15:22:15;0.93;;;0.70;;
7493;SDS011;3788;49.902;8.590;2022-09-09T15:24:41;2.40;;;0.73;;
7493;SDS011;3788;49.902;8.590;2022-09-09T15:27:08;2.57;;;0.90;;
7493;SDS011;3788;49.902;8.590;2022-09-09T15:29:35;1.47;;;0.87;;
7493;SDS011;3788;49.902;8.590;2022-09-09T15:32:04;2.30;;;0.83;;
7493;SDS011;3788;49.902;8.590;2022-09-09T15:34:32;1.17;;;0.83;;
7493;SDS011;3788;49.902;8.590;2022-09-09T15:36:58;2.40;;;0.83;;
7493;SDS011;3788;49.902;8.590;2022-09-09T15:39:25;2.80;;;1.10;;
7493;SDS011;3788;49.902;8.590;2022-09-09T15:41:52;3.17;;;0.80;;
7493;SDS011;3788;49.902;8.590;2022-09-09T15:44:18;3.73;;;0.80;;
7493;SDS011;3788;49.902;8.590;2022-09-09T15:46:46;2.23;;;0.80;;
7493;SDS011;3788;49.902;8.590;2022-09-09T15:49:16;2.17;;;0.70;;
7493;SDS011;3788;49.902;8.590;2022-09-09T15:51:46;1.53;;;0.60;;
7493;SDS011;3788;49.902;8.590;2022-09-09T15:54:14;2.57;;;0.83;;
7493;SDS011;3788;49.902;8.590;2022-09-09T15:56:43;1.87;;;0.90;;
7493;SDS011;3788;49.902;8.590;2022-09-09T15:59:10;3.63;;;0.80;;